Time;durP1;ratioP1;P1;durP2;ratioP2;P2;SDS_P1;SDS_P2;PMS_P1;PMS_P2;Temp;Humidity;BMP_temperature;BMP_pressure;BME280_temperature;BME280_humidity;BME280_pressure;Samples;Min_cycle;Max_cycle;Signal;HPM_P1;HPM_P2
2022/05/24 00:02:14;;;;;;;14.60;13.23;;;14.90;90.70;;;;;;5031081;28;20045;-49
2022/05/24 00:04:40;;;;;;;20.08;12.18;;;14.70;90.70;;;;;;5029767;28;20116;-47
2022/05/24 00:07:08;;;;;;;14.73;13.13;;;14.70;90.70;;;;;;5040790;28;20033;-46
2022/05/24 00:09:33;;;;;;;16.05;13.85;;;14.70;90.70;;;;;;5046331;28;20750;-47
2022/05/24 00:11:59;;;;;;;17.25;14.00;;;14.60;90.70;;;;;;5036450;28;20025;-47
2022/05/24 00:17:11;;;;;;;15.80;13.93;;;14.60;90.80;;;;;;5037097;28;20055;-48
2022/05/24 00:19:37;;;;;;;17.90;15.25;;;14.60;90.70;;;;;;5029744;28;20033;-46
2022/05/24 00:22:05;;;;;;;17.48;14.43;;;14.60;90.70;;;;;;5030556;28;20080;-46
2022/05/24 00:24:34;;;;;;;18.40;16.42;;;14.60;90.70;;;;;;5030484;28;20037;-47
2022/05/24 00:27:02;;;;;;;20.08;17.88;;;14.50;90.60;;;;;;5043565;28;20029;-46
2022/05/24 00:29:28;;;;;;;21.98;18.85;;;14.60;90.70;;;;;;5030798;28;20045;-45
2022/05/24 00:31:54;;;;;;;21.00;18.60;;;14.50;90.40;;;;;;5013853;28;20032;-46
2022/05/24 00:34:19;;;;;;;23.67;20.65;;;14.50;90.40;;;;;;5029651;28;20450;-46
2022/05/24 00:36:45;;;;;;;22.45;19.42;;;14.50;90.50;;;;;;5049135;28;20060;-45
2022/05/24 00:39:10;;;;;;;23.63;21.17;;;14.50;90.40;;;;;;5043014;28;20048;-45
2022/05/24 00:41:43;;;;;;;25.13;21.52;;;14.40;90.30;;;;;;5048284;28;20029;-46
2022/05/24 00:44:21;;;;;;;26.00;21.40;;;14.40;90.40;;;;;;5047452;28;20021;-45
2022/05/24 00:46:56;;;;;;;23.48;20.92;;;14.40;90.40;;;;;;5045391;28;20143;-47
2022/05/24 00:49:37;;;;;;;25.35;21.92;;;14.30;90.40;;;;;;5047936;28;20064;-45
2022/05/24 00:52:42;;;;;;;23.50;21.08;;;14.30;90.30;;;;;;5049852;28;20347;-45
2022/05/24 00:55:11;;;;;;;23.88;21.40;;;14.30;90.40;;;;;;5048753;28;20108;-48
2022/05/24 00:57:44;;;;;;;21.13;18.90;;;14.30;90.40;;;;;;5038981;28;20067;-45
2022/05/24 01:00:13;;;;;;;21.30;17.88;;;14.30;90.30;;;;;;5028874;28;20284;-45
2022/05/24 01:02:41;;;;;;;20.60;18.27;;;14.30;90.10;;;;;;5039988;28;20028;-46
2022/05/24 01:05:08;;;;;;;20.73;17.23;;;14.20;90.00;;;;;;5045655;28;20064;-44
2022/05/24 01:07:34;;;;;;;20.92;16.73;;;14.20;90.20;;;;;;5031165;28;20030;-44
2022/05/24 01:10:12;;;;;;;18.77;16.77;;;14.30;90.10;;;;;;5035663;28;20036;-44
2022/05/24 01:12:53;;;;;;;17.95;16.00;;;14.30;90.10;;;;;;5048401;28;20036;-44
2022/05/24 01:15:20;;;;;;;16.00;14.35;;;14.20;90.10;;;;;;5040536;28;20078;-44
2022/05/24 01:17:49;;;;;;;16.58;14.48;;;14.20;90.00;;;;;;5033693;28;20113;-44
2022/05/24 01:20:15;;;;;;;15.02;13.32;;;14.20;90.00;;;;;;5028006;28;20358;-45
2022/05/24 01:23:05;;;;;;;13.15;11.60;;;14.20;89.90;;;;;;5035109;28;20033;-44
2022/05/24 01:25:37;;;;;;;15.65;12.32;;;14.10;89.70;;;;;;5020504;28;20064;-43
2022/05/24 01:28:15;;;;;;;14.63;11.60;;;14.10;89.90;;;;;;5037805;28;20026;-44
2022/05/24 01:30:41;;;;;;;15.85;11.10;;;14.10;89.90;;;;;;5028396;28;20031;-44
2022/05/24 01:36:09;;;;;;;15.85;11.55;;;14.10;89.90;;;;;;5048584;28;20048;-43
2022/05/24 01:38:35;;;;;;;13.43;10.02;;;14.20;90.10;;;;;;5043694;28;20043;-43
2022/05/24 01:41:02;;;;;;;13.77;10.07;;;14.10;89.90;;;;;;5037636;28;20021;-44
2022/05/24 01:43:31;;;;;;;13.98;11.00;;;14.10;90.00;;;;;;5033324;28;20036;-44
2022/05/24 01:46:03;;;;;;;13.52;10.02;;;14.10;90.00;;;;;;5027054;28;20036;-44
2022/05/24 01:48:49;;;;;;;14.60;10.07;;;14.00;89.90;;;;;;5029361;28;20389;-43
2022/05/24 01:51:19;;;;;;;10.40;9.38;;;14.10;89.90;;;;;;5044700;28;20115;-43
2022/05/24 01:53:48;;;;;;;10.40;8.30;;;14.00;89.60;;;;;;5046641;28;20105;-43
2022/05/24 01:56:18;;;;;;;13.32;7.32;;;13.90;89.50;;;;;;5026822;28;20034;-44
2022/05/24 01:58:56;;;;;;;8.70;6.70;;;13.90;89.40;;;;;;5027136;28;20061;-44
2022/05/24 02:01:34;;;;;;;7.63;6.07;;;13.90;89.00;;;;;;5027469;28;20064;-44
2022/05/24 02:04:01;;;;;;;10.10;5.63;;;13.80;88.60;;;;;;5026258;28;20488;-42
2022/05/24 02:06:29;;;;;;;7.95;6.13;;;13.70;88.60;;;;;;5028456;28;20029;-43
2022/05/24 02:08:55;;;;;;;8.93;6.38;;;13.70;88.50;;;;;;5027769;28;20029;-43
2022/05/24 02:11:27;;;;;;;7.20;5.03;;;13.70;88.50;;;;;;5044908;28;20071;-42
2022/05/24 02:14:04;;;;;;;7.60;6.10;;;13.60;88.20;;;;;;5041072;28;20397;-45
2022/05/24 02:16:33;;;;;;;10.35;5.70;;;13.60;88.00;;;;;;5044982;28;20125;-43
2022/05/24 02:18:59;;;;;;;9.07;5.83;;;13.60;88.20;;;;;;5048206;28;20071;-43
2022/05/24 02:21:27;;;;;;;7.43;5.05;;;13.50;88.20;;;;;;5044410;28;20290;-43
2022/05/24 02:23:53;;;;;;;10.93;6.25;;;13.50;88.00;;;;;;5047095;28;20117;-42
2022/05/24 02:26:21;;;;;;;8.75;5.65;;;13.50;88.10;;;;;;5036045;28;20104;-43
2022/05/24 02:28:53;;;;;;;8.02;5.53;;;13.50;87.90;;;;;;5043077;28;20025;-43
2022/05/24 02:31:21;;;;;;;10.35;6.18;;;13.40;87.70;;;;;;5008272;28;20556;-43
2022/05/24 02:33:47;;;;;;;7.97;5.50;;;13.40;87.80;;;;;;5037807;28;20071;-42
2022/05/24 02:36:14;;;;;;;8.10;6.28;;;13.40;87.80;;;;;;5046810;28;20385;-42
2022/05/24 02:38:40;;;;;;;9.75;5.68;;;13.50;87.80;;;;;;5051148;28;20109;-41
2022/05/24 02:43:50;;;;;;;9.15;5.53;;;13.50;87.70;;;;;;5034024;28;20040;-42
2022/05/24 02:46:22;;;;;;;10.45;5.65;;;13.40;87.60;;;;;;5030061;28;20037;-42
2022/05/24 02:48:48;;;;;;;7.90;5.28;;;13.50;87.90;;;;;;5050291;28;20047;-43
2022/05/24 02:51:15;;;;;;;7.95;5.38;;;13.50;87.80;;;;;;5050352;28;20095;-42
2022/05/24 02:53:44;;;;;;;7.50;5.45;;;13.40;87.80;;;;;;5040649;28;20446;-43
2022/05/24 02:56:14;;;;;;;9.23;6.28;;;13.50;87.80;;;;;;5042765;28;20033;-43
2022/05/24 02:58:42;;;;;;;9.45;5.25;;;13.40;87.80;;;;;;5040330;28;20446;-42
2022/05/24 03:01:22;;;;;;;7.72;5.75;;;13.40;87.70;;;;;;5040421;28;20590;-43
2022/05/24 03:03:52;;;;;;;10.48;6.25;;;13.40;87.50;;;;;;5048641;28;20051;-45
2022/05/24 03:06:19;;;;;;;7.57;5.53;;;13.30;87.50;;;;;;5043822;28;20059;-42
2022/05/24 03:14:18;;;;;;;9.98;5.90;;;13.10;87.80;;;;;;5037483;28;20084;-42
2022/05/24 03:16:48;;;;;;;8.15;6.20;;;13.00;87.70;;;;;;5027563;28;20405;-43
2022/05/24 03:19:15;;;;;;;7.90;5.65;;;13.00;87.70;;;;;;5024377;28;20080;-42
2022/05/24 03:21:41;;;;;;;7.50;5.57;;;12.90;87.80;;;;;;5041526;28;20033;-42
2022/05/24 03:24:08;;;;;;;7.72;4.93;;;12.90;87.80;;;;;;5043555;28;20036;-42
2022/05/24 03:26:37;;;;;;;6.07;4.60;;;12.90;87.80;;;;;;5041609;28;20036;-42
2022/05/24 03:29:03;;;;;;;6.70;5.63;;;12.90;87.70;;;;;;5031961;28;20459;-42
2022/05/24 03:31:32;;;;;;;8.70;5.45;;;12.90;87.80;;;;;;5039371;28;20044;-42
2022/05/24 03:33:58;;;;;;;11.07;6.78;;;12.90;87.80;;;;;;5045524;28;20067;-42
2022/05/24 03:36:24;;;;;;;10.23;6.50;;;12.90;87.80;;;;;;5047485;28;20056;-42
2022/05/24 03:38:49;;;;;;;9.05;5.82;;;12.90;88.00;;;;;;5050433;28;20036;-42
2022/05/24 03:41:15;;;;;;;8.90;5.95;;;12.90;88.10;;;;;;5038254;28;20050;-42
2022/05/24 03:43:40;;;;;;;7.72;6.07;;;12.90;88.10;;;;;;5050881;28;20040;-42
2022/05/24 03:46:09;;;;;;;10.20;6.93;;;12.90;88.40;;;;;;5031144;28;20045;-41
2022/05/24 03:48:35;;;;;;;8.05;7.00;;;12.90;88.40;;;;;;5028765;28;20032;-43
2022/05/24 03:51:02;;;;;;;10.23;6.88;;;13.00;88.50;;;;;;5028223;28;20049;-42
2022/05/24 03:53:28;;;;;;;8.82;6.85;;;13.00;88.60;;;;;;5035910;28;20033;-42
2022/05/24 03:55:54;;;;;;;10.13;7.55;;;13.00;88.60;;;;;;5033489;28;20186;-45
2022/05/24 03:58:20;;;;;;;10.90;7.47;;;13.10;88.80;;;;;;5030154;28;20029;-42
2022/05/24 04:00:46;;;;;;;10.38;7.70;;;13.10;88.60;;;;;;5029744;28;20029;-43
2022/05/24 04:03:13;;;;;;;9.38;7.47;;;13.10;88.50;;;;;;5029468;28;20037;-41
2022/05/24 04:05:39;;;;;;;10.70;7.72;;;13.00;88.40;;;;;;5034414;28;20580;-41
2022/05/24 04:08:05;;;;;;;11.13;8.18;;;13.10;88.70;;;;;;5040873;28;20060;-42
2022/05/24 04:10:32;;;;;;;11.30;8.75;;;13.00;88.50;;;;;;5035349;28;20041;-42
2022/05/24 04:12:58;;;;;;;12.48;7.97;;;13.10;88.50;;;;;;5022542;28;20033;-43
2022/05/24 04:15:24;;;;;;;13.02;9.13;;;13.10;88.60;;;;;;5030086;28;20084;-42
2022/05/24 04:17:58;;;;;;;9.77;8.77;;;13.20;88.50;;;;;;5037365;28;20448;-42
2022/05/24 04:20:28;;;;;;;12.82;10.13;;;13.30;88.60;;;;;;5033910;28;20033;-42
2022/05/24 04:22:55;;;;;;;15.82;10.40;;;13.40;88.50;;;;;;5030101;28;20471;-42
2022/05/24 04:25:20;;;;;;;14.18;10.05;;;13.30;88.30;;;;;;5029376;28;20129;-42
2022/05/24 04:27:47;;;;;;;11.73;10.45;;;13.30;88.40;;;;;;5029292;28;20506;-41
2022/05/24 04:30:14;;;;;;;12.00;9.95;;;13.30;88.30;;;;;;5028713;28;20446;-42
2022/05/24 04:32:39;;;;;;;11.77;8.88;;;13.40;88.20;;;;;;5032037;28;20082;-42
2022/05/24 04:35:06;;;;;;;13.02;9.20;;;13.40;88.00;;;;;;5028034;28;20371;-41
2022/05/24 04:37:31;;;;;;;9.52;8.55;;;13.60;88.10;;;;;;5039096;28;20094;-42
2022/05/24 04:39:57;;;;;;;11.80;9.07;;;13.60;87.90;;;;;;5027114;28;20029;-41
2022/05/24 04:42:25;;;;;;;10.25;9.15;;;13.60;87.80;;;;;;5012290;28;20434;-42
2022/05/24 04:44:57;;;;;;;9.00;8.07;;;13.60;87.80;;;;;;5027839;28;20116;-43
2022/05/24 04:47:25;;;;;;;14.73;9.32;;;13.70;87.90;;;;;;5030138;28;20036;-45
2022/05/24 04:49:56;;;;;;;11.73;9.45;;;13.70;87.80;;;;;;5029031;28;20033;-43
2022/05/24 04:52:27;;;;;;;10.80;8.98;;;13.70;87.90;;;;;;5033940;28;20049;-42
2022/05/24 04:54:53;;;;;;;10.95;8.65;;;13.80;87.90;;;;;;5028687;28;20119;-44
2022/05/24 04:57:21;;;;;;;11.65;8.23;;;13.90;88.00;;;;;;5028759;28;20029;-43
2022/05/24 04:59:48;;;;;;;10.07;8.73;;;14.10;87.80;;;;;;5038007;28;20100;-41
2022/05/24 05:02:16;;;;;;;11.20;8.77;;;14.20;87.60;;;;;;5033164;28;20037;-42
2022/05/24 05:04:41;;;;;;;12.68;9.35;;;14.20;87.30;;;;;;5031281;28;20041;-43
2022/05/24 05:07:10;;;;;;;11.88;8.30;;;14.20;87.30;;;;;;5028318;28;20063;-44
2022/05/24 05:09:36;;;;;;;11.00;9.88;;;14.20;87.40;;;;;;5039298;28;20132;-43
2022/05/24 05:12:06;;;;;;;11.50;9.20;;;14.30;87.30;;;;;;5022492;28;20026;-44
2022/05/24 05:14:32;;;;;;;;;;;14.40;87.50;;;;;;5028711;28;20033;-45
2022/05/24 05:16:58;;;;;;;11.30;9.57;;;14.40;87.50;;;;;;5028612;28;19916;-44
2022/05/24 05:19:24;;;;;;;13.27;10.18;;;14.40;87.60;;;;;;5029107;28;20339;-43
2022/05/24 05:21:49;;;;;;;12.75;10.13;;;14.40;87.50;;;;;;5030778;28;20151;-43
2022/05/24 05:24:15;;;;;;;11.13;9.27;;;14.40;87.40;;;;;;5031855;28;20025;-44
2022/05/24 05:26:41;;;;;;;12.25;10.93;;;14.50;87.40;;;;;;5040953;28;20037;-44
2022/05/24 05:29:06;;;;;;;13.73;11.15;;;14.60;87.40;;;;;;5028298;28;20034;-43
2022/05/24 05:31:32;;;;;;;13.70;10.82;;;14.60;87.20;;;;;;5043073;28;20025;-44
2022/05/24 05:34:00;;;;;;;17.38;13.68;;;14.60;87.30;;;;;;5042559;28;20022;-43
2022/05/24 05:36:27;;;;;;;15.95;13.05;;;14.50;87.10;;;;;;5027186;28;20501;-43
2022/05/24 05:38:54;;;;;;;15.30;13.38;;;14.50;87.40;;;;;;5027035;28;20037;-43
2022/05/24 05:41:27;;;;;;;15.63;13.93;;;14.40;87.40;;;;;;5036884;28;20100;-43
2022/05/24 05:43:53;;;;;;;16.55;14.85;;;14.40;87.80;;;;;;5028182;28;20025;-44
2022/05/24 05:46:19;;;;;;;19.77;15.77;;;14.40;88.00;;;;;;5028954;28;20045;-43
2022/05/24 05:48:45;;;;;;;19.15;15.20;;;14.40;88.10;;;;;;5029562;28;20026;-43
2022/05/24 05:51:12;;;;;;;20.42;17.52;;;14.40;88.30;;;;;;5047693;28;20033;-42
2022/05/24 05:53:39;;;;;;;19.65;16.52;;;14.40;88.30;;;;;;5028038;28;20026;-41
2022/05/24 05:56:07;;;;;;;18.23;16.08;;;14.40;88.40;;;;;;5027633;28;20044;-43
2022/05/24 05:58:33;;;;;;;20.60;16.13;;;14.40;88.50;;;;;;5028041;28;20041;-42
2022/05/24 06:01:00;;;;;;;20.85;18.20;;;14.40;88.30;;;;;;5026218;28;20044;-44
2022/05/24 06:03:26;;;;;;;19.38;16.08;;;14.30;88.50;;;;;;5028802;28;20041;-45
2022/05/24 06:05:53;;;;;;;20.88;18.05;;;14.40;88.60;;;;;;5026921;28;20034;-43
2022/05/24 06:08:22;;;;;;;23.17;19.70;;;14.40;88.70;;;;;;5029077;28;20390;-47
2022/05/24 06:10:47;;;;;;;21.48;19.17;;;14.40;88.80;;;;;;5034448;28;20096;-41
2022/05/24 06:13:15;;;;;;;21.13;18.45;;;14.40;88.90;;;;;;5031950;28;20120;-43
2022/05/24 06:15:41;;;;;;;21.65;19.05;;;14.50;88.80;;;;;;5035745;28;20462;-43
2022/05/24 06:18:09;;;;;;;21.48;19.10;;;14.50;88.80;;;;;;5050884;28;20039;-43
2022/05/24 06:20:34;;;;;;;19.75;17.83;;;14.60;88.70;;;;;;5039402;28;20037;-44
2022/05/24 06:23:00;;;;;;;23.67;21.02;;;14.70;88.70;;;;;;5031006;28;20038;-43
2022/05/24 06:25:28;;;;;;;20.85;18.73;;;14.80;88.60;;;;;;5031460;28;20041;-44
2022/05/24 06:27:54;;;;;;;24.95;20.55;;;14.90;88.30;;;;;;5031969;28;20098;-47
2022/05/24 06:30:22;;;;;;;22.73;20.33;;;14.90;88.20;;;;;;5033261;28;20052;-43
2022/05/24 06:32:48;;;;;;;23.92;21.13;;;15.00;87.90;;;;;;5042755;28;20082;-42
2022/05/24 06:35:14;;;;;;;25.08;19.90;;;15.00;87.60;;;;;;5042173;28;20100;-44
2022/05/24 06:37:43;;;;;;;21.50;19.20;;;15.10;87.70;;;;;;5051971;28;20037;-43
2022/05/24 06:40:11;;;;;;;22.70;19.70;;;15.20;87.50;;;;;;5039749;28;20018;-44
2022/05/24 06:42:36;;;;;;;22.02;19.83;;;15.20;87.00;;;;;;5052428;28;20076;-43
2022/05/24 06:45:03;;;;;;;22.20;19.85;;;15.30;87.30;;;;;;5050049;28;20478;-43
2022/05/24 06:47:28;;;;;;;22.17;19.17;;;15.30;86.60;;;;;;5050170;28;20040;-47
2022/05/24 06:49:55;;;;;;;19.30;17.48;;;15.40;86.30;;;;;;5039283;28;20105;-45
2022/05/24 06:52:21;;;;;;;20.85;18.65;;;15.40;86.30;;;;;;5036410;28;20041;-43
2022/05/24 06:54:47;;;;;;;20.15;18.33;;;15.60;85.90;;;;;;5040002;28;20021;-45
2022/05/24 06:57:15;;;;;;;20.17;18.13;;;15.70;85.80;;;;;;5031236;28;20029;-44
2022/05/24 07:02:25;;;;;;;18.45;16.55;;;15.90;85.00;;;;;;5031736;28;20049;-46
2022/05/24 07:05:06;;;;;;;18.60;16.63;;;16.00;85.20;;;;;;5036973;28;20025;-44
2022/05/24 07:07:33;;;;;;;19.95;18.02;;;16.20;85.00;;;;;;5050813;28;20026;-44
2022/05/24 07:09:58;;;;;;;17.92;16.13;;;16.20;84.10;;;;;;5030825;28;20420;-46
2022/05/24 07:12:28;;;;;;;17.73;15.88;;;16.30;83.40;;;;;;5033332;28;20029;-43
2022/05/24 07:14:54;;;;;;;16.85;14.77;;;16.30;83.90;;;;;;5051495;28;20032;-44
2022/05/24 07:17:22;;;;;;;16.33;14.32;;;16.50;83.80;;;;;;5049797;28;20104;-44
2022/05/24 07:19:48;;;;;;;17.27;15.57;;;16.90;83.30;;;;;;5051928;28;20047;-44
2022/05/24 07:22:14;;;;;;;15.07;13.48;;;17.30;81.90;;;;;;5048171;28;20042;-46
2022/05/24 07:24:41;;;;;;;14.52;12.38;;;17.60;80.70;;;;;;5050655;28;20021;-44
2022/05/24 07:27:10;;;;;;;13.90;12.43;;;17.90;79.10;;;;;;5046404;28;20449;-46
2022/05/24 07:29:39;;;;;;;15.15;11.80;;;17.70;78.30;;;;;;5031666;28;20021;-44
2022/05/24 07:32:05;;;;;;;12.55;11.30;;;17.40;78.20;;;;;;5043861;28;20373;-45
2022/05/24 07:34:32;;;;;;;15.70;11.43;;;17.00;78.80;;;;;;5044735;28;20056;-44
2022/05/24 07:37:00;;;;;;;12.32;10.85;;;16.80;79.20;;;;;;5022510;28;20030;-44
2022/05/24 07:39:26;;;;;;;15.27;12.57;;;16.60;80.20;;;;;;5014791;28;20342;-44
2022/05/24 07:47:20;;;;;;;11.98;10.73;;;16.00;80.40;;;;;;5047263;28;20133;-44
2022/05/24 07:49:46;;;;;;;12.95;10.80;;;15.80;81.00;;;;;;5042810;28;20022;-43
2022/05/24 07:52:11;;;;;;;13.20;11.18;;;15.70;81.80;;;;;;5033422;28;20575;-44
2022/05/24 07:54:37;;;;;;;15.02;12.23;;;15.60;82.30;;;;;;5029670;28;20502;-43
2022/05/24 07:57:08;;;;;;;15.35;13.02;;;15.40;83.00;;;;;;5031644;28;20033;-42
2022/05/24 07:59:35;;;;;;;15.40;12.73;;;15.30;83.60;;;;;;5026680;28;20026;-61
2022/05/24 08:02:03;;;;;;;16.80;14.02;;;15.30;84.60;;;;;;5029368;28;20056;-60
2022/05/24 08:04:32;;;;;;;15.18;13.18;;;15.20;85.30;;;;;;5050298;28;20395;-59
2022/05/24 08:06:57;;;;;;;15.88;13.73;;;15.10;86.00;;;;;;5034690;28;20045;-57
2022/05/24 08:09:23;;;;;;;15.05;13.05;;;15.10;86.40;;;;;;5029713;28;20162;-57
2022/05/24 08:11:49;;;;;;;17.33;14.82;;;14.90;86.60;;;;;;5044394;28;20029;-53
2022/05/24 08:14:14;;;;;;;17.60;15.82;;;14.90;86.80;;;;;;5047434;28;20608;-51
2022/05/24 08:16:40;;;;;;;17.85;15.15;;;14.90;87.40;;;;;;5045635;28;20029;-57
2022/05/24 08:19:08;;;;;;;17.65;15.60;;;14.80;87.70;;;;;;5048517;28;20357;-50
2022/05/24 08:21:34;;;;;;;17.70;14.93;;;14.70;87.70;;;;;;5035247;28;20025;-49
2022/05/24 08:24:02;;;;;;;18.20;16.25;;;14.70;87.90;;;;;;5030195;28;20423;-47
2022/05/24 08:26:27;;;;;;;19.40;15.82;;;14.70;88.10;;;;;;5032681;28;20036;-48
2022/05/24 08:28:53;;;;;;;20.17;16.02;;;14.60;88.00;;;;;;5049934;28;20056;-53
2022/05/24 08:31:19;;;;;;;19.40;15.15;;;14.60;88.00;;;;;;5044988;28;20025;-48
2022/05/24 08:33:46;;;;;;;16.85;14.70;;;14.70;88.10;;;;;;5029828;28;20029;-48
2022/05/24 08:36:15;;;;;;;19.48;16.85;;;14.70;88.20;;;;;;5036608;28;20055;-49
2022/05/24 08:38:44;;;;;;;19.90;17.13;;;14.90;88.30;;;;;;5041012;28;20032;-46
2022/05/24 08:41:19;;;;;;;18.93;16.97;;;15.00;88.20;;;;;;5049266;28;20465;-46
2022/05/24 08:49:56;;;;;;;15.60;14.07;;;15.70;87.20;;;;;;5049094;28;20088;-45
2022/05/24 08:52:24;;;;;;;19.17;17.25;;;15.80;87.00;;;;;;5043776;28;20383;-44
2022/05/24 08:54:51;;;;;;;19.65;17.48;;;15.90;86.50;;;;;;5029889;28;20038;-43
2022/05/24 08:57:25;;;;;;;24.17;19.30;;;15.80;86.20;;;;;;5026775;28;20040;-44
2022/05/24 08:59:59;;;;;;;18.45;16.48;;;15.70;85.40;;;;;;5018803;28;20106;-44
2022/05/24 09:02:24;;;;;;;21.65;17.60;;;15.50;85.00;;;;;;5027946;28;20018;-43
2022/05/24 09:04:51;;;;;;;18.92;16.98;;;15.40;84.60;;;;;;5026538;28;20431;-43
2022/05/24 09:08:07;;;;;;;20.02;17.90;;;15.40;84.90;;;;;;5023799;28;20040;-42
2022/05/24 09:10:59;;;;;;;23.88;18.65;;;15.50;85.50;;;;;;4991359;28;20054;-45
2022/05/24 09:13:53;;;;;;;19.48;16.17;;;15.50;85.10;;;;;;5007681;28;20021;-43
2022/05/24 09:16:19;;;;;;;19.92;15.80;;;15.60;85.10;;;;;;4996944;28;20459;-43
2022/05/24 09:19:04;;;;;;;19.05;17.25;;;15.50;84.30;;;;;;5006203;28;20049;-44
2022/05/24 09:21:31;;;;;;;21.15;18.17;;;15.60;84.50;;;;;;4989745;28;20073;-44
2022/05/24 09:24:24;;;;;;;24.83;19.38;;;15.60;84.60;;;;;;4997192;28;20120;-42
2022/05/24 09:27:18;;;;;;;19.33;17.15;;;15.60;84.50;;;;;;5001933;28;20034;-43
2022/05/24 09:29:58;;;;;;;20.33;18.10;;;15.70;84.70;;;;;;5006928;28;20455;-43
2022/05/24 09:32:31;;;;;;;;;;;15.60;84.00;;;;;;5006640;28;20036;-43
2022/05/24 09:35:05;;;;;;;19.45;16.70;;;15.60;84.30;;;;;;4980274;28;20302;-47
2022/05/24 09:37:31;;;;;;;19.10;16.20;;;15.60;83.60;;;;;;5001849;28;20045;-45
2022/05/24 09:40:06;;;;;;;17.92;14.75;;;15.50;83.30;;;;;;4995081;28;20027;-44
2022/05/24 09:42:36;;;;;;;18.00;15.23;;;15.50;83.70;;;;;;5035790;28;20416;-43
2022/05/24 09:45:10;;;;;;;17.25;14.50;;;15.60;83.60;;;;;;5027519;28;20033;-43
2022/05/24 09:47:45;;;;;;;16.48;14.07;;;15.80;83.80;;;;;;5035338;28;20411;-43
2022/05/24 09:50:39;;;;;;;18.98;14.52;;;15.90;83.30;;;;;;5030069;28;20028;-42
2022/05/24 09:53:24;;;;;;;18.63;13.93;;;16.00;82.40;;;;;;5031291;28;20041;-43
2022/05/24 09:55:59;;;;;;;16.48;13.55;;;16.40;82.30;;;;;;5034418;28;20111;-43
2022/05/24 09:58:33;;;;;;;17.92;12.10;;;16.90;81.00;;;;;;5031884;28;20113;-45
2022/05/24 10:01:01;;;;;;;18.92;12.65;;;17.40;79.00;;;;;;5030726;28;20042;-44
2022/05/24 10:03:37;;;;;;;15.10;13.40;;;17.60;76.90;;;;;;5031824;28;20072;-44
2022/05/24 10:06:11;;;;;;;17.30;13.90;;;17.50;76.40;;;;;;5029783;28;20030;-44
2022/05/24 10:08:43;;;;;;;14.98;12.20;;;17.20;76.40;;;;;;5048047;28;20104;-44
2022/05/24 10:11:21;;;;;;;15.23;12.48;;;17.00;77.50;;;;;;5037277;28;20378;-44
2022/05/24 10:13:58;;;;;;;15.07;12.80;;;17.00;77.00;;;;;;5030744;28;20048;-44
2022/05/24 10:16:32;;;;;;;13.20;11.80;;;17.10;77.40;;;;;;5037302;28;20381;-44
2022/05/24 10:19:17;;;;;;;15.00;12.52;;;17.30;77.30;;;;;;5025987;28;20066;-44
2022/05/24 10:21:51;;;;;;;16.98;13.20;;;17.60;76.90;;;;;;5031730;28;20520;-44
2022/05/24 10:24:20;;;;;;;14.68;11.82;;;17.60;75.40;;;;;;5031022;28;20056;-44
2022/05/24 10:27:03;;;;;;;14.02;11.55;;;17.90;75.10;;;;;;5036408;28;20085;-44
2022/05/24 10:29:32;;;;;;;16.30;11.60;;;18.30;74.40;;;;;;5032460;28;20052;-43
2022/05/24 10:38:40;;;;;;;16.38;10.50;;;18.40;71.60;;;;;;5042636;28;20117;-47
2022/05/24 10:41:15;;;;;;;14.60;9.98;;;18.00;73.80;;;;;;5036637;28;20110;-44
2022/05/24 10:43:56;;;;;;;13.45;9.55;;;17.90;73.20;;;;;;5032210;28;20033;-43
2022/05/24 10:46:44;;;;;;;11.20;9.38;;;18.10;74.30;;;;;;5022886;28;20063;-44
2022/05/24 10:49:27;;;;;;;10.07;8.80;;;18.60;73.70;;;;;;5017966;28;20442;-47
2022/05/24 10:52:00;;;;;;;12.80;9.32;;;19.00;72.80;;;;;;5038487;28;20352;-45
2022/05/24 10:54:31;;;;;;;11.13;7.90;;;19.10;70.70;;;;;;5037427;28;20036;-46
2022/05/24 10:57:26;;;;;;;11.25;8.18;;;19.00;69.20;;;;;;5029797;28;20075;-46
2022/05/24 10:59:59;;;;;;;10.77;7.47;;;19.40;71.40;;;;;;5031142;28;20057;-46
2022/05/24 11:02:40;;;;;;;8.25;5.45;;;20.00;67.60;;;;;;5041097;28;20449;-46
2022/05/24 11:05:20;;;;;;;8.82;5.80;;;20.30;65.10;;;;;;5032858;28;20029;-45
2022/05/24 11:07:56;;;;;;;8.80;5.70;;;20.60;62.80;;;;;;5036117;28;20461;-45
2022/05/24 11:10:33;;;;;;;9.35;5.13;;;20.40;63.00;;;;;;5030692;28;20441;-46
2022/05/24 11:13:04;;;;;;;7.45;5.22;;;20.60;63.10;;;;;;5031576;28;20027;-46
2022/05/24 11:15:37;;;;;;;7.55;4.63;;;20.70;61.70;;;;;;5030901;28;20331;-45
2022/05/24 11:18:10;;;;;;;8.95;4.82;;;20.90;62.00;;;;;;5030625;28;20049;-45
2022/05/24 11:20:43;;;;;;;8.23;4.45;;;21.30;59.80;;;;;;5030926;28;20412;-47
2022/05/24 11:23:17;;;;;;;8.25;4.82;;;20.90;58.50;;;;;;5031600;28;20112;-45
2022/05/24 11:26:01;;;;;;;6.97;4.60;;;20.30;58.70;;;;;;5037845;28;20032;-45
2022/05/24 11:28:33;;;;;;;8.20;5.63;;;20.10;61.60;;;;;;5031425;28;20026;-45
2022/05/24 11:31:36;;;;;;;8.15;4.60;;;19.80;59.70;;;;;;5029520;28;20056;-44
2022/05/24 11:34:18;;;;;;;9.10;4.70;;;19.70;60.30;;;;;;5030649;28;20042;-47
2022/05/24 11:36:50;;;;;;;10.65;5.00;;;19.20;61.00;;;;;;5030456;28;20037;-50
2022/05/24 11:39:18;;;;;;;7.25;5.38;;;18.80;62.50;;;;;;5039252;28;20559;-45
2022/05/24 11:41:44;;;;;;;7.45;5.20;;;18.50;63.80;;;;;;5031539;28;20040;-46
2022/05/24 11:44:31;;;;;;;7.63;4.10;;;18.40;64.20;;;;;;5042320;28;20053;-47
2022/05/24 11:46:57;;;;;;;8.65;3.92;;;18.10;63.80;;;;;;5030628;28;20025;-45
2022/05/24 11:49:27;;;;;;;5.72;4.68;;;17.80;65.90;;;;;;5030148;28;20040;-44
2022/05/24 11:51:57;;;;;;;8.38;5.68;;;16.80;71.60;;;;;;5033061;28;20063;-50
2022/05/24 11:54:23;;;;;;;7.90;6.13;;;15.70;77.30;;;;;;5040280;28;20076;-52
2022/05/24 11:56:52;;;;;;;8.40;6.55;;;15.20;80.80;;;;;;5031789;28;20025;-47
2022/05/24 11:59:40;;;;;;;8.98;6.43;;;14.90;81.40;;;;;;5027789;28;20061;-47
2022/05/24 12:02:21;;;;;;;8.88;7.50;;;14.70;82.50;;;;;;5033140;28;20061;-47
2022/05/24 12:08:06;;;;;;;8.48;5.32;;;14.50;83.40;;;;;;5044330;28;20382;-55
2022/05/24 12:10:36;;;;;;;5.22;3.42;;;14.40;82.90;;;;;;5030580;28;21204;-54
2022/05/24 12:13:02;;;;;;;7.93;3.65;;;14.20;82.40;;;;;;5049577;28;20457;-50
2022/05/24 12:15:33;;;;;;;5.80;3.67;;;14.20;83.00;;;;;;5045138;28;20029;-47
2022/05/24 12:17:58;;;;;;;4.72;3.63;;;14.50;83.90;;;;;;5045855;28;20097;-46
2022/05/24 12:20:33;;;;;;;3.92;3.50;;;15.10;84.60;;;;;;5033517;28;20033;-45
2022/05/24 12:23:09;;;;;;;6.20;2.38;;;15.90;85.20;;;;;;5030625;28;20037;-44
2022/05/24 12:26:02;;;;;;;4.60;2.10;;;16.30;82.60;;;;;;5030279;28;20040;-44
2022/05/24 12:28:48;;;;;;;4.40;1.55;;;16.40;78.70;;;;;;5030272;28;20030;-44
2022/05/24 12:31:13;;;;;;;3.45;1.88;;;16.00;77.40;;;;;;5039878;28;20037;-44
2022/05/24 12:33:50;;;;;;;5.50;2.83;;;15.80;78.30;;;;;;5049371;28;20051;-44
2022/05/24 12:36:18;;;;;;;5.07;3.20;;;15.40;78.20;;;;;;5037251;28;20061;-50
2022/05/24 12:39:00;;;;;;;4.43;3.78;;;15.10;79.80;;;;;;5028235;28;20524;-55
2022/05/24 12:41:33;;;;;;;4.97;4.22;;;15.00;81.20;;;;;;5033276;28;20032;-57
2022/05/24 12:44:03;;;;;;;4.93;3.75;;;14.90;82.70;;;;;;5048175;28;20365;-51
2022/05/24 12:46:34;;;;;;;3.58;1.90;;;15.00;83.30;;;;;;5043886;28;20447;-49
2022/05/24 12:49:06;;;;;;;3.42;1.40;;;15.10;82.30;;;;;;5028060;28;20037;-48
2022/05/24 12:51:33;;;;;;;2.25;1.17;;;15.50;82.10;;;;;;5032186;28;20045;-47
2022/05/24 12:54:10;;;;;;;2.60;1.25;;;15.90;81.50;;;;;;5029902;28;20378;-45
2022/05/24 12:56:35;;;;;;;2.72;1.65;;;16.10;79.90;;;;;;5029920;28;20120;-45
2022/05/24 12:59:12;;;;;;;3.35;1.70;;;16.20;80.00;;;;;;5046162;28;20123;-46
2022/05/24 13:01:42;;;;;;;3.28;2.03;;;16.30;78.50;;;;;;5040090;28;20051;-45
2022/05/24 13:04:21;;;;;;;3.40;2.17;;;16.10;79.20;;;;;;5028185;28;20465;-45
2022/05/24 13:06:48;;;;;;;6.25;2.97;;;16.40;80.50;;;;;;5029365;28;20087;-45
2022/05/24 13:09:24;;;;;;;3.42;1.90;;;16.70;81.10;;;;;;5047721;28;20025;-46
2022/05/24 13:11:59;;;;;;;5.60;2.10;;;16.80;79.60;;;;;;5033484;28;20025;-46
2022/05/24 13:14:57;;;;;;;2.75;1.73;;;16.90;79.00;;;;;;5040276;28;20109;-47
2022/05/24 13:17:27;;;;;;;3.10;1.95;;;17.10;79.50;;;;;;5043733;28;20430;-46
2022/05/24 13:20:03;;;;;;;;;;;17.30;77.20;;;;;;5031429;28;20021;-46
2022/05/24 13:22:43;;;;;;;3.17;1.77;;;17.40;76.00;;;;;;5045404;28;19917;-43
2022/05/24 13:25:19;;;;;;;3.00;1.50;;;17.10;74.30;;;;;;5046999;28;20033;-45
2022/05/24 13:27:59;;;;;;;2.55;1.20;;;16.90;73.20;;;;;;5041229;28;20064;-45
2022/05/24 13:33:48;;;;;;;1.92;0.98;;;16.50;74.00;;;;;;5023061;28;20099;-46
2022/05/24 13:36:18;;;;;;;4.72;1.42;;;17.00;74.40;;;;;;5022247;28;20034;-42